createdAt,value
2023-01-26T00:01:16.994Z,2.09
2023-01-26T00:03:44.695Z,2.11
2023-01-26T00:06:13.689Z,2.17
2023-01-26T00:08:42.234Z,2.22
2023-01-26T00:11:10.414Z,2.15
2023-01-26T00:13:37.871Z,2.17
2023-01-26T00:16:05.448Z,2.19
2023-01-26T00:18:32.820Z,2.33
2023-01-26T00:21:01.257Z,2.36
2023-01-26T00:23:29.367Z,2.35
2023-01-26T00:25:56.696Z,2.24
2023-01-26T00:28:24.019Z,2.15
2023-01-26T00:30:51.342Z,2.08
2023-01-26T00:33:18.903Z,2.08
2023-01-26T00:35:54.410Z,2.26
2023-01-26T00:38:21.904Z,2.33
2023-01-26T00:40:49.219Z,2.25
2023-01-26T00:43:16.508Z,2.29
2023-01-26T00:45:44.625Z,2.39
2023-01-26T00:48:12.032Z,2.30
2023-01-26T00:50:39.282Z,2.15
2023-01-26T00:53:06.577Z,2.17
2023-01-26T00:55:33.898Z,2.32
2023-01-26T00:58:02.198Z,2.22
2023-01-26T01:00:31.034Z,2.09
2023-01-26T01:02:58.571Z,2.15
2023-01-26T01:05:27.500Z,2.02
2023-01-26T01:07:54.934Z,2.01
2023-01-26T01:10:22.261Z,2.08
2023-01-26T01:12:49.717Z,1.93
2023-01-26T01:15:17.226Z,1.95
2023-01-26T01:17:44.624Z,1.93
2023-01-26T01:20:12.519Z,2.15
2023-01-26T01:22:41.820Z,2.15
2023-01-26T01:25:09.357Z,2.11
2023-01-26T01:27:36.774Z,2.11
2023-01-26T01:30:07.866Z,2.09
2023-01-26T01:32:36.289Z,2.12
2023-01-26T01:35:04.212Z,2.14
2023-01-26T01:37:31.641Z,2.02
2023-01-26T01:39:58.971Z,2.11
2023-01-26T01:42:26.454Z,2.08
2023-01-26T01:45:28.454Z,2.12
2023-01-26T01:47:57.044Z,2.15
2023-01-26T01:50:24.874Z,2.08
2023-01-26T01:52:52.619Z,2.05
2023-01-26T01:55:19.860Z,1.97
2023-01-26T01:57:55.499Z,1.94
2023-01-26T02:00:23.673Z,2.19
2023-01-26T02:03:11.560Z,2.14
2023-01-26T02:05:51.411Z,2.00
2023-01-26T02:08:19.494Z,2.05
2023-01-26T02:10:47.645Z,2.08
2023-01-26T02:13:16.465Z,2.17
2023-01-26T02:15:44.235Z,2.07
2023-01-26T02:18:11.747Z,1.90
2023-01-26T02:20:46.063Z,2.04
2023-01-26T02:23:14.632Z,2.04
2023-01-26T02:25:52.884Z,2.05
2023-01-26T02:28:26.034Z,2.07
2023-01-26T02:30:53.851Z,2.19
2023-01-26T02:33:23.382Z,2.21
2023-01-26T02:35:50.993Z,2.09
2023-01-26T02:38:19.167Z,2.12
2023-01-26T02:40:58.764Z,2.07
2023-01-26T02:43:26.662Z,2.02
2023-01-26T02:45:54.247Z,1.97
2023-01-26T02:48:40.583Z,2.18
2023-01-26T02:51:08.047Z,2.17
2023-01-26T02:53:35.408Z,2.15
2023-01-26T02:56:03.013Z,2.11
2023-01-26T02:58:30.339Z,2.07
2023-01-26T03:00:57.798Z,2.17
2023-01-26T03:03:41.772Z,2.01
2023-01-26T03:06:10.641Z,1.84
2023-01-26T03:08:38.262Z,1.87
2023-01-26T03:11:07.114Z,2.05
2023-01-26T03:13:35.124Z,2.14
2023-01-26T03:16:07.289Z,2.22
2023-01-26T03:18:53.780Z,2.25
2023-01-26T03:21:42.652Z,2.21
2023-01-26T03:24:31.784Z,2.08
2023-01-26T03:27:19.657Z,2.02
2023-01-26T03:29:47.048Z,2.11
2023-01-26T03:32:14.416Z,2.12
2023-01-26T03:34:43.158Z,2.09
2023-01-26T03:37:10.566Z,2.12
2023-01-26T03:40:13.835Z,2.04
2023-01-26T03:43:00.785Z,2.02
2023-01-26T03:45:48.751Z,1.98
2023-01-26T03:48:35.137Z,2.08
2023-01-26T03:51:23.939Z,2.01
2023-01-26T03:54:09.806Z,2.11
2023-01-26T03:56:37.163Z,2.19
2023-01-26T03:59:09.528Z,2.21
2023-01-26T04:01:41.022Z,1.91
2023-01-26T04:04:27.370Z,1.95
2023-01-26T04:07:14.421Z,2.05
2023-01-26T04:09:46.739Z,2.05
2023-01-26T04:12:14.309Z,2.05
2023-01-26T04:15:23.297Z,2.05
2023-01-26T04:18:09.454Z,2.02
2023-01-26T04:20:55.482Z,1.93
2023-01-26T04:23:23.029Z,2.05
2023-01-26T04:25:51.747Z,2.14
2023-01-26T04:28:19.127Z,2.24
2023-01-26T04:30:48.240Z,2.17
2023-01-26T04:33:15.620Z,2.09
2023-01-26T04:35:43.013Z,2.09
2023-01-26T04:38:10.571Z,2.15
2023-01-26T04:40:39.831Z,2.40
2023-01-26T04:43:07.172Z,2.42
2023-01-26T04:45:34.582Z,2.30
2023-01-26T04:48:01.993Z,2.22
2023-01-26T04:50:29.471Z,2.12
2023-01-26T04:52:56.905Z,2.02
2023-01-26T04:55:24.138Z,2.01
2023-01-26T04:57:52.447Z,2.09
2023-01-26T05:00:20.828Z,2.02
2023-01-26T05:02:48.335Z,2.04
2023-01-26T05:05:15.915Z,1.98
2023-01-26T05:07:43.410Z,2.04
2023-01-26T05:10:14.507Z,2.02
2023-01-26T05:13:16.469Z,2.12
2023-01-26T05:16:06.085Z,2.04
2023-01-26T05:18:54.210Z,2.04
2023-01-26T05:21:43.889Z,2.05
2023-01-26T05:24:13.070Z,1.95
2023-01-26T05:27:21.178Z,2.00
2023-01-26T05:30:00.987Z,1.93
2023-01-26T05:32:31.178Z,2.00
2023-01-26T05:34:58.525Z,2.17
2023-01-26T05:37:27.068Z,2.09
2023-01-26T05:39:55.478Z,2.17
2023-01-26T05:42:23.268Z,2.08
2023-01-26T05:45:09.922Z,2.15
2023-01-26T05:47:39.652Z,2.02
2023-01-26T05:50:07.541Z,2.15
2023-01-26T05:52:35.662Z,2.25
2023-01-26T05:55:04.462Z,2.30
2023-01-26T05:57:31.922Z,2.09
2023-01-26T06:00:07.466Z,2.21
2023-01-26T06:02:41.407Z,2.21
2023-01-26T06:05:12.021Z,2.12
2023-01-26T06:07:40.023Z,2.09
2023-01-26T06:10:14.431Z,2.08
2023-01-26T06:12:53.881Z,2.04
2023-01-26T06:15:42.002Z,2.08
2023-01-26T06:18:09.861Z,2.02
2023-01-26T06:20:40.383Z,1.93
2023-01-26T06:23:12.045Z,2.05
2023-01-26T06:25:49.204Z,2.07
2023-01-26T06:28:17.035Z,2.22
2023-01-26T06:30:45.101Z,2.25
2023-01-26T06:33:13.081Z,2.11
2023-01-26T06:35:43.515Z,2.07
2023-01-26T06:38:13.048Z,2.05
2023-01-26T06:40:40.434Z,1.95
2023-01-26T06:43:08.327Z,2.00
2023-01-26T06:45:36.113Z,2.11
2023-01-26T06:48:03.751Z,2.19
2023-01-26T06:50:37.268Z,2.02
2023-01-26T06:53:37.579Z,2.19
2023-01-26T06:56:37.731Z,2.19
2023-01-26T06:59:31.175Z,2.12
2023-01-26T07:02:31.069Z,2.21
2023-01-26T07:05:03.057Z,2.09
2023-01-26T07:07:31.729Z,2.07
2023-01-26T07:09:59.326Z,1.98
2023-01-26T07:12:26.752Z,1.94
2023-01-26T07:14:54.336Z,2.07
2023-01-26T07:17:41.504Z,2.04
2023-01-26T07:20:10.832Z,2.11
2023-01-26T07:22:45.237Z,2.21
2023-01-26T07:25:14.099Z,2.17
2023-01-26T07:27:44.497Z,2.22
2023-01-26T07:30:18.424Z,2.22
2023-01-26T07:32:46.467Z,2.30
2023-01-26T07:35:30.091Z,2.36
2023-01-26T07:37:59.563Z,2.30
2023-01-26T07:40:27.331Z,2.30
2023-01-26T07:43:16.726Z,2.26
2023-01-26T07:45:57.015Z,2.24
2023-01-26T07:48:24.981Z,2.12
2023-01-26T07:50:52.945Z,2.30
2023-01-26T07:53:23.161Z,2.11
2023-01-26T07:55:50.873Z,2.12
2023-01-26T07:58:18.837Z,2.02
2023-01-26T08:00:52.750Z,2.07
2023-01-26T08:03:20.315Z,2.00
2023-01-26T08:05:50.992Z,2.02
2023-01-26T08:08:19.698Z,2.15
2023-01-26T08:10:49.697Z,2.19
2023-01-26T08:13:29.936Z,2.17
2023-01-26T08:16:04.675Z,2.05
2023-01-26T08:18:34.109Z,2.25
2023-01-26T08:21:02.715Z,2.21
2023-01-26T08:23:30.681Z,2.19
2023-01-26T08:26:02.574Z,2.24
2023-01-26T08:28:30.800Z,2.30
2023-01-26T08:31:06.158Z,2.32
2023-01-26T08:33:34.244Z,2.29
2023-01-26T08:36:03.492Z,2.32
2023-01-26T08:38:32.419Z,2.30
2023-01-26T08:41:00.335Z,2.36
2023-01-26T08:43:28.525Z,2.18
2023-01-26T08:45:56.111Z,2.32
2023-01-26T08:48:26.115Z,2.48
2023-01-26T08:50:58.103Z,2.35
2023-01-26T08:53:26.305Z,2.43
2023-01-26T08:55:53.836Z,2.42
2023-01-26T08:58:21.231Z,2.46
2023-01-26T09:00:49.548Z,2.30
2023-01-26T09:03:20.130Z,2.25
2023-01-26T09:05:47.738Z,2.25
2023-01-26T09:08:15.263Z,2.28
2023-01-26T09:10:45.405Z,2.63
2023-01-26T09:13:12.895Z,2.50
2023-01-26T09:15:40.406Z,2.40
2023-01-26T09:18:07.999Z,2.50
2023-01-26T09:20:35.417Z,2.48
2023-01-26T09:23:03.069Z,2.79
2023-01-26T09:25:30.516Z,2.64
2023-01-26T09:27:57.994Z,2.54
2023-01-26T09:30:25.858Z,2.35
2023-01-26T09:33:07.563Z,2.52
2023-01-26T09:35:35.124Z,2.59
2023-01-26T09:38:02.682Z,2.67
2023-01-26T09:40:51.852Z,2.63
2023-01-26T09:43:39.698Z,2.69
2023-01-26T09:46:16.181Z,2.57
2023-01-26T09:48:55.870Z,2.73
2023-01-26T09:51:32.534Z,2.73
2023-01-26T09:54:05.017Z,2.70
2023-01-26T09:56:33.242Z,2.81
2023-01-26T09:59:35.044Z,2.61
2023-01-26T10:02:20.120Z,2.60
2023-01-26T10:04:52.271Z,2.63
2023-01-26T10:07:20.677Z,2.77
2023-01-26T10:09:51.808Z,2.94
2023-01-26T10:12:33.040Z,2.93
2023-01-26T10:15:11.885Z,2.75
2023-01-26T10:17:43.710Z,2.60
2023-01-26T10:20:35.312Z,2.77
2023-01-26T10:23:23.578Z,2.70
2023-01-26T10:25:51.933Z,2.91
2023-01-26T10:28:27.176Z,2.90
2023-01-26T10:30:55.194Z,3.04
2023-01-26T10:33:33.070Z,2.84
2023-01-26T10:36:01.589Z,3.11
2023-01-26T10:38:38.102Z,3.29
2023-01-26T10:41:26.646Z,3.32
2023-01-26T10:43:58.359Z,3.34
2023-01-26T10:46:28.893Z,3.40
2023-01-26T10:49:00.958Z,3.54
2023-01-26T10:51:31.942Z,3.48
2023-01-26T10:54:17.704Z,3.25
2023-01-26T10:56:56.722Z,3.15
2023-01-26T10:59:45.028Z,3.01
2023-01-26T11:02:13.090Z,2.91
2023-01-26T11:04:41.531Z,3.05
2023-01-26T11:07:29.515Z,3.27
2023-01-26T11:09:57.321Z,3.46
2023-01-26T11:12:25.761Z,3.21
2023-01-26T11:15:06.479Z,3.35
2023-01-26T11:17:56.503Z,3.39
2023-01-26T11:20:46.008Z,3.45
2023-01-26T11:23:16.826Z,3.51
2023-01-26T11:26:11.925Z,3.58
2023-01-26T11:28:59.925Z,3.52
2023-01-26T11:31:36.344Z,3.39
2023-01-26T11:34:39.731Z,3.27
2023-01-26T11:37:37.139Z,3.32
2023-01-26T11:40:28.908Z,3.34
2023-01-26T11:43:35.958Z,3.34
2023-01-26T11:46:12.804Z,3.39
2023-01-26T11:48:43.541Z,3.48
2023-01-26T11:51:17.828Z,3.22
2023-01-26T11:54:06.567Z,3.27
2023-01-26T11:57:09.509Z,3.24
2023-01-26T11:59:40.456Z,3.27
2023-01-26T12:02:27.869Z,3.22
2023-01-26T12:04:59.106Z,3.25
2023-01-26T12:07:51.651Z,3.28
2023-01-26T12:10:26.189Z,3.18
2023-01-26T12:13:39.819Z,3.05
2023-01-26T12:16:30.570Z,3.12
2023-01-26T12:19:20.682Z,3.21
2023-01-26T12:21:52.309Z,3.42
2023-01-26T12:25:04.939Z,3.35
2023-01-26T12:27:44.774Z,3.22
2023-01-26T12:30:31.259Z,3.22
2023-01-26T12:33:01.781Z,3.17
2023-01-26T12:36:00.563Z,3.07
2023-01-26T12:38:50.979Z,3.18
2023-01-26T12:41:45.219Z,3.18
2023-01-26T12:44:32.439Z,3.12
2023-01-26T12:47:14.692Z,3.15
2023-01-26T12:50:05.817Z,3.21
2023-01-26T12:52:33.345Z,3.10
2023-01-26T12:55:20.479Z,3.22
2023-01-26T12:57:53.604Z,3.22
2023-01-26T13:00:27.899Z,3.19
2023-01-26T13:03:19.978Z,3.08
2023-01-26T13:05:59.649Z,3.11
2023-01-26T13:08:34.088Z,2.98
2023-01-26T13:11:06.896Z,2.94
2023-01-26T13:13:36.269Z,3.03
2023-01-26T13:16:27.163Z,2.98
2023-01-26T13:18:55.797Z,3.03
2023-01-26T13:21:43.881Z,3.14
2023-01-26T13:24:18.333Z,3.27
2023-01-26T13:27:01.568Z,3.07
2023-01-26T13:29:33.352Z,3.05
2023-01-26T13:32:10.213Z,3.08
2023-01-26T13:34:41.647Z,3.11
2023-01-26T13:37:17.508Z,3.14
2023-01-26T13:39:48.238Z,3.18
2023-01-26T13:42:19.624Z,3.27
2023-01-26T13:45:39.539Z,3.12
2023-01-26T13:48:13.660Z,3.14
2023-01-26T13:50:41.225Z,3.05
2023-01-26T13:53:35.085Z,3.21
2023-01-26T13:56:03.695Z,3.14
2023-01-26T13:58:31.066Z,3.07
2023-01-26T14:01:06.482Z,2.97
2023-01-26T14:03:34.045Z,2.98
2023-01-26T14:06:04.679Z,3.08
2023-01-26T14:08:32.390Z,3.15
2023-01-26T14:11:00.107Z,3.19
2023-01-26T14:13:37.248Z,3.43
2023-01-26T14:16:09.070Z,3.56
2023-01-26T14:18:36.571Z,3.38
2023-01-26T14:21:06.688Z,3.46
2023-01-26T14:23:35.877Z,3.48
2023-01-26T14:26:04.262Z,3.43
2023-01-26T14:28:34.933Z,3.32
2023-01-26T14:31:09.554Z,3.27
2023-01-26T14:33:36.987Z,3.22
2023-01-26T14:36:05.205Z,3.05
2023-01-26T14:38:46.606Z,3.07
2023-01-26T14:41:28.701Z,3.21
2023-01-26T14:43:59.797Z,3.29
2023-01-26T14:47:00.974Z,3.27
2023-01-26T14:50:03.481Z,3.25
2023-01-26T14:52:35.197Z,3.11
2023-01-26T14:55:15.464Z,3.08
2023-01-26T14:57:42.769Z,3.15
2023-01-26T15:00:40.831Z,3.11
2023-01-26T15:03:15.198Z,3.05
2023-01-26T15:05:42.569Z,2.98
2023-01-26T15:08:23.842Z,2.94
2023-01-26T15:10:55.697Z,2.94
2023-01-26T15:13:23.849Z,3.01
2023-01-26T15:16:05.886Z,3.04
2023-01-26T15:18:33.946Z,2.89
2023-01-26T15:21:15.226Z,2.93
2023-01-26T15:23:43.872Z,2.97
2023-01-26T15:26:33.777Z,2.80
2023-01-26T15:29:15.375Z,2.79
2023-01-26T15:31:42.979Z,2.90
2023-01-26T15:34:29.155Z,3.10
2023-01-26T15:36:58.768Z,3.08
2023-01-26T15:39:26.126Z,3.12
2023-01-26T15:42:13.641Z,3.05
2023-01-26T15:44:41.088Z,2.97
2023-01-26T15:47:10.302Z,3.10
2023-01-26T15:49:38.342Z,3.03
2023-01-26T15:52:26.125Z,2.96
2023-01-26T15:54:54.180Z,2.87
2023-01-26T15:57:21.506Z,2.91
2023-01-26T15:59:48.803Z,2.79
2023-01-26T16:02:20.373Z,2.77
2023-01-26T16:04:47.778Z,2.79
2023-01-26T16:07:16.817Z,2.83
2023-01-26T16:09:44.170Z,2.77
2023-01-26T16:12:35.743Z,2.79
2023-01-26T16:15:03.256Z,2.69
2023-01-26T16:17:30.623Z,2.79
2023-01-26T16:19:58.063Z,2.89
2023-01-26T16:22:25.651Z,2.84
2023-01-26T16:24:53.222Z,2.75
2023-01-26T16:27:21.727Z,2.86
2023-01-26T16:29:49.160Z,2.84
2023-01-26T16:32:28.280Z,2.73
2023-01-26T16:34:55.780Z,2.72
2023-01-26T16:37:23.027Z,2.77
2023-01-26T16:39:50.404Z,2.64
2023-01-26T16:42:19.073Z,2.72
2023-01-26T16:44:46.531Z,2.79
2023-01-26T16:47:13.902Z,2.89
2023-01-26T16:49:41.303Z,2.79
2023-01-26T16:52:09.160Z,2.53
2023-01-26T16:54:36.615Z,2.46
2023-01-26T16:57:04.069Z,2.60
2023-01-26T16:59:31.499Z,2.61
2023-01-26T17:01:58.847Z,2.57
2023-01-26T17:04:26.340Z,2.49
2023-01-26T17:06:53.694Z,2.49
2023-01-26T17:09:23.263Z,2.52
2023-01-26T17:11:50.812Z,2.40
2023-01-26T17:14:18.264Z,2.40
2023-01-26T17:16:45.756Z,2.32
2023-01-26T17:19:13.148Z,2.46
2023-01-26T17:21:40.601Z,2.50
2023-01-26T17:24:08.019Z,2.46
2023-01-26T17:26:35.441Z,2.72
2023-01-26T17:29:03.092Z,2.56
2023-01-26T17:31:31.724Z,2.53
2023-01-26T17:33:59.181Z,2.25
2023-01-26T17:36:26.630Z,2.30
2023-01-26T17:38:54.066Z,2.46
2023-01-26T17:41:21.643Z,2.33
2023-01-26T17:43:49.174Z,2.46
2023-01-26T17:46:20.911Z,2.40
2023-01-26T17:48:48.871Z,2.45
2023-01-26T17:51:18.285Z,2.36
2023-01-26T17:53:46.826Z,2.33
2023-01-26T17:56:15.948Z,2.35
2023-01-26T17:58:43.435Z,2.40
2023-01-26T18:01:12.738Z,2.52
2023-01-26T18:03:41.091Z,2.38
2023-01-26T18:06:08.401Z,2.30
2023-01-26T18:08:36.536Z,2.28
2023-01-26T18:11:04.880Z,2.29
2023-01-26T18:13:32.525Z,2.38
2023-01-26T18:15:59.866Z,2.33
2023-01-26T18:18:28.512Z,2.25
2023-01-26T18:20:56.116Z,2.40
2023-01-26T18:23:24.262Z,2.42
2023-01-26T18:25:52.043Z,2.35
2023-01-26T18:28:19.813Z,2.22
2023-01-26T18:30:48.706Z,2.18
2023-01-26T18:33:16.222Z,2.22
2023-01-26T18:35:43.583Z,2.28
2023-01-26T18:38:10.965Z,2.25
2023-01-26T18:40:41.439Z,2.18
2023-01-26T18:43:11.759Z,2.26
2023-01-26T18:45:41.889Z,2.29
2023-01-26T18:48:09.562Z,2.24
2023-01-26T18:50:38.581Z,2.19
2023-01-26T18:53:06.168Z,2.22
2023-01-26T18:55:34.684Z,2.24
2023-01-26T18:58:02.295Z,2.25
2023-01-26T19:00:29.741Z,2.25
2023-01-26T19:02:57.214Z,2.25
2023-01-26T19:05:24.542Z,2.35
2023-01-26T19:07:51.965Z,2.40
2023-01-26T19:10:19.357Z,2.19
2023-01-26T19:12:49.482Z,2.22
2023-01-26T19:15:16.821Z,2.26
2023-01-26T19:17:45.022Z,2.24
2023-01-26T19:20:12.659Z,2.35
2023-01-26T19:22:40.083Z,2.28
2023-01-26T19:25:07.696Z,2.25
2023-01-26T19:27:35.096Z,2.21
2023-01-26T19:30:02.417Z,2.32
2023-01-26T19:32:29.834Z,2.29
2023-01-26T19:34:57.064Z,2.33
2023-01-26T19:37:24.501Z,2.35
2023-01-26T19:39:51.761Z,2.29
2023-01-26T19:42:19.193Z,2.22
2023-01-26T19:44:46.551Z,2.25
2023-01-26T19:47:13.947Z,2.18
2023-01-26T19:49:41.228Z,2.21
2023-01-26T19:52:08.742Z,2.29
2023-01-26T19:54:36.054Z,2.38
2023-01-26T19:57:03.452Z,2.32
2023-01-26T19:59:31.166Z,2.39
2023-01-26T20:01:58.611Z,2.45
2023-01-26T20:04:26.302Z,2.48
2023-01-26T20:06:53.654Z,2.48
2023-01-26T20:09:20.927Z,2.49
2023-01-26T20:11:49.116Z,2.40
2023-01-26T20:14:16.408Z,2.30
2023-01-26T20:16:43.862Z,2.32
2023-01-26T20:19:11.587Z,2.26
2023-01-26T20:21:40.391Z,2.24
2023-01-26T20:24:09.187Z,2.32
2023-01-26T20:26:36.622Z,2.43
2023-01-26T20:29:04.288Z,2.35
2023-01-26T20:31:32.824Z,2.29
2023-01-26T20:34:01.829Z,2.26
2023-01-26T20:36:29.365Z,2.32
2023-01-26T20:38:56.708Z,2.24
2023-01-26T20:41:25.843Z,2.21
2023-01-26T20:44:01.558Z,2.36
2023-01-26T20:46:34.699Z,2.32
2023-01-26T20:49:02.320Z,2.39
2023-01-26T20:51:33.737Z,2.38
2023-01-26T20:54:01.178Z,2.30
2023-01-26T20:56:28.424Z,2.28
2023-01-26T20:58:56.189Z,2.22
2023-01-26T21:01:23.794Z,2.28
2023-01-26T21:03:51.205Z,2.25
2023-01-26T21:06:19.233Z,2.25
2023-01-26T21:08:47.531Z,2.32
2023-01-26T21:11:15.929Z,2.38
2023-01-26T21:13:43.342Z,2.30
2023-01-26T21:16:11.420Z,2.28
2023-01-26T21:18:38.914Z,2.24
2023-01-26T21:21:07.323Z,2.40
2023-01-26T21:23:35.007Z,2.42
2023-01-26T21:26:04.026Z,2.35
2023-01-26T21:28:31.530Z,2.35
2023-01-26T21:31:02.902Z,2.42
2023-01-26T21:33:31.106Z,2.30
2023-01-26T21:35:59.164Z,2.36
2023-01-26T21:38:26.589Z,2.46
2023-01-26T21:41:00.698Z,2.48
2023-01-26T21:43:28.623Z,2.42
2023-01-26T21:45:58.823Z,2.49
2023-01-26T21:48:31.866Z,2.48
2023-01-26T21:51:17.961Z,2.42
2023-01-26T21:53:45.390Z,2.35
2023-01-26T21:56:14.759Z,2.26
2023-01-26T21:58:54.226Z,2.29
2023-01-26T22:01:21.947Z,2.15
2023-01-26T22:03:49.248Z,2.11
2023-01-26T22:06:16.599Z,2.12
2023-01-26T22:08:43.947Z,2.17
2023-01-26T22:11:14.628Z,2.11
2023-01-26T22:13:43.112Z,2.22
2023-01-26T22:16:10.411Z,2.28
2023-01-26T22:18:37.843Z,2.36
2023-01-26T22:21:05.278Z,2.11
2023-01-26T22:23:36.585Z,2.07
2023-01-26T22:26:08.168Z,2.17
2023-01-26T22:28:35.512Z,2.08
2023-01-26T22:31:06.823Z,2.24
2023-01-26T22:33:34.657Z,2.21
2023-01-26T22:36:02.746Z,2.18
2023-01-26T22:38:32.376Z,2.18
2023-01-26T22:40:59.659Z,2.08
2023-01-26T22:43:27.324Z,2.08
2023-01-26T22:45:54.628Z,2.11
2023-01-26T22:48:21.974Z,2.15
2023-01-26T22:50:49.225Z,2.17
2023-01-26T22:53:16.537Z,2.22
2023-01-26T22:55:43.907Z,2.04
2023-01-26T22:58:11.521Z,2.11
2023-01-26T23:00:39.350Z,2.09
2023-01-26T23:03:06.817Z,2.05
2023-01-26T23:05:34.355Z,2.11
2023-01-26T23:08:01.993Z,2.00
2023-01-26T23:10:29.398Z,1.91
2023-01-26T23:12:56.933Z,1.97
2023-01-26T23:15:24.487Z,1.87
2023-01-26T23:17:52.085Z,1.82
2023-01-26T23:20:20.050Z,1.84
2023-01-26T23:22:47.732Z,1.87
2023-01-26T23:25:33.489Z,1.88
2023-01-26T23:28:04.024Z,1.82
2023-01-26T23:30:31.524Z,1.81
2023-01-26T23:32:58.871Z,1.85
2023-01-26T23:35:26.681Z,1.88
2023-01-26T23:37:53.983Z,1.84
2023-01-26T23:40:21.389Z,1.84
2023-01-26T23:43:06.921Z,1.95
2023-01-26T23:45:36.314Z,2.00
2023-01-26T23:48:03.732Z,2.04
2023-01-26T23:50:31.042Z,2.04
2023-01-26T23:52:58.324Z,1.95
2023-01-26T23:55:25.706Z,1.95
2023-01-26T23:57:52.962Z,1.88
